createdAt,value
2017-11-10T00:00:05.156Z,21.04
2017-11-10T00:00:18.568Z,21.08
2017-11-10T00:00:31.436Z,21.06
2017-11-10T00:00:44.372Z,21.06
2017-11-10T00:00:57.817Z,21.03
2017-11-10T00:01:11.301Z,21.06
2017-11-10T00:01:24.822Z,21.04
2017-11-10T00:01:38.301Z,21.06
2017-11-10T00:01:51.825Z,21.03
2017-11-10T00:02:05.247Z,21.01
2017-11-10T00:02:18.734Z,21.03
2017-11-10T00:02:32.199Z,20.98
2017-11-10T00:02:45.061Z,21.03
2017-11-10T00:02:57.958Z,21.01
2017-11-10T00:03:11.468Z,21.04
2017-11-10T00:03:24.957Z,21.13
2017-11-10T00:03:38.430Z,21.03
2017-11-10T00:03:51.893Z,21.12
2017-11-10T00:04:04.803Z,21.11
2017-11-10T00:04:18.297Z,21.06
2017-11-10T00:04:31.213Z,21.03
2017-11-10T00:04:44.148Z,21.11
2017-11-10T00:04:57.629Z,21.03
2017-11-10T00:05:10.598Z,21.18
2017-11-10T00:05:24.091Z,21.04
2017-11-10T00:05:36.982Z,21.13
2017-11-10T00:05:50.421Z,21.11
2017-11-10T00:06:03.898Z,21.12
2017-11-10T00:06:16.286Z,21.11
2017-11-10T00:06:29.168Z,21.13
2017-11-10T00:06:42.071Z,21.04
2017-11-10T00:06:54.960Z,21.06
2017-11-10T00:07:07.935Z,21.06
2017-11-10T00:07:20.906Z,21.06
2017-11-10T00:07:34.430Z,21.01
2017-11-10T00:07:47.930Z,21.09
2017-11-10T00:08:00.816Z,20.98
2017-11-10T00:08:14.339Z,21.01
2017-11-10T00:08:27.832Z,21.03
2017-11-10T00:08:41.317Z,20.98
2017-11-10T00:08:54.973Z,20.94
2017-11-10T00:09:07.309Z,20.9
2017-11-10T00:09:20.270Z,20.93
2017-11-10T00:09:33.808Z,20.85
2017-11-10T00:09:46.714Z,20.91
2017-11-10T00:10:00.187Z,20.9
2017-11-10T00:10:12.559Z,20.93
2017-11-10T00:10:26.071Z,20.94
2017-11-10T00:10:38.981Z,20.94
2017-11-10T00:10:52.396Z,20.97
2017-11-10T00:11:05.902Z,20.98
2017-11-10T00:11:18.808Z,20.96
2017-11-10T00:11:32.326Z,20.94
2017-11-10T00:11:46.695Z,20.94
2017-11-10T00:12:00.158Z,20.96
2017-11-10T00:12:12.573Z,20.91
2017-11-10T00:12:24.992Z,20.9
2017-11-10T00:12:38.498Z,20.85
2017-11-10T00:12:51.911Z,21
2017-11-10T00:13:05.313Z,20.85
2017-11-10T00:13:18.747Z,20.96
2017-11-10T00:13:32.235Z,20.94
2017-11-10T00:13:45.144Z,20.93
2017-11-10T00:13:58.631Z,20.94
2017-11-10T00:14:12.108Z,20.9
2017-11-10T00:14:25.036Z,20.91
2017-11-10T00:14:38.473Z,20.85
2017-11-10T00:14:51.426Z,20.88
2017-11-10T00:15:04.819Z,20.83
2017-11-10T00:15:18.348Z,20.82
2017-11-10T00:15:31.283Z,20.79
2017-11-10T00:15:44.734Z,20.78
2017-11-10T00:15:58.221Z,20.78
2017-11-10T00:16:11.158Z,20.72
2017-11-10T00:16:23.562Z,20.85
2017-11-10T00:16:37.005Z,20.82
2017-11-10T00:16:50.460Z,20.81
2017-11-10T00:17:03.907Z,20.79
2017-11-10T00:17:17.373Z,20.83
2017-11-10T00:17:30.845Z,20.82
2017-11-10T00:17:43.822Z,20.74
2017-11-10T00:17:56.754Z,20.82
2017-11-10T00:18:10.267Z,20.78
2017-11-10T00:18:23.149Z,20.68
2017-11-10T00:18:36.071Z,20.78
2017-11-10T00:18:49.589Z,20.66
2017-11-10T00:19:03.008Z,20.68
2017-11-10T00:19:15.931Z,20.6
2017-11-10T00:19:28.834Z,20.58
2017-11-10T00:19:42.281Z,20.78
2017-11-10T00:19:55.787Z,20.68
2017-11-10T00:20:09.261Z,20.72
2017-11-10T00:20:22.181Z,20.71
2017-11-10T00:20:35.894Z,20.71
2017-11-10T00:20:49.334Z,20.56
2017-11-10T00:21:02.778Z,20.63
2017-11-10T00:21:15.097Z,20.63
2017-11-10T00:21:28.618Z,20.66
2017-11-10T00:21:42.060Z,20.66
2017-11-10T00:21:55.554Z,20.56
2017-11-10T00:22:08.990Z,20.71
2017-11-10T00:22:21.907Z,20.68
2017-11-10T00:22:35.369Z,20.71
2017-11-10T00:22:48.854Z,20.66
2017-11-10T00:23:02.301Z,20.68
2017-11-10T00:23:14.689Z,20.71
2017-11-10T00:23:27.577Z,20.67
2017-11-10T00:23:40.492Z,20.68
2017-11-10T00:23:53.976Z,20.64
2017-11-10T00:24:07.430Z,20.63
2017-11-10T00:24:19.785Z,20.61
2017-11-10T00:24:33.280Z,20.57
2017-11-10T00:24:46.763Z,20.56
2017-11-10T00:25:00.229Z,20.56
2017-11-10T00:25:12.649Z,20.53
2017-11-10T00:25:25.034Z,20.66
2017-11-10T00:25:37.949Z,20.6
2017-11-10T00:25:50.847Z,20.56
2017-11-10T00:26:03.775Z,20.66
2017-11-10T00:26:16.110Z,20.68
2017-11-10T00:26:28.980Z,20.67
2017-11-10T00:26:42.417Z,20.72
2017-11-10T00:26:56.113Z,20.67
2017-11-10T00:27:08.973Z,20.66
2017-11-10T00:27:21.340Z,20.56
2017-11-10T00:27:34.808Z,20.49
2017-11-10T00:27:48.355Z,20.63
2017-11-10T00:28:01.851Z,20.54
2017-11-10T00:28:15.302Z,20.58
2017-11-10T00:28:28.792Z,20.64
2017-11-10T00:28:42.216Z,20.61
2017-11-10T00:28:55.662Z,20.63
2017-11-10T00:29:09.157Z,20.66
2017-11-10T00:29:22.147Z,20.56
2017-11-10T00:29:35.043Z,20.6
2017-11-10T00:29:48.573Z,20.58
2017-11-10T00:30:01.999Z,20.64
2017-11-10T00:30:14.891Z,20.66
2017-11-10T00:30:28.404Z,20.58
2017-11-10T00:30:40.798Z,20.66
2017-11-10T00:30:54.254Z,20.64
2017-11-10T00:31:06.589Z,20.61
2017-11-10T00:31:18.945Z,20.6
2017-11-10T00:31:31.899Z,20.56
2017-11-10T00:31:45.361Z,20.64
2017-11-10T00:31:58.823Z,20.63
2017-11-10T00:32:12.330Z,20.66
2017-11-10T00:32:25.226Z,20.61
2017-11-10T00:32:38.736Z,20.58
2017-11-10T00:32:51.665Z,20.57
2017-11-10T00:33:04.543Z,20.64
2017-11-10T00:33:17.436Z,20.6
2017-11-10T00:33:30.963Z,20.6
2017-11-10T00:33:43.923Z,20.6
2017-11-10T00:33:57.354Z,20.64
2017-11-10T00:34:10.808Z,20.57
2017-11-10T00:34:23.136Z,20.64
2017-11-10T00:34:36.597Z,20.6
2017-11-10T00:34:50.095Z,20.64
2017-11-10T00:35:03.011Z,20.6
2017-11-10T00:35:16.453Z,20.6
2017-11-10T00:35:29.967Z,20.57
2017-11-10T00:35:43.435Z,20.57
2017-11-10T00:35:56.327Z,20.63
2017-11-10T00:36:09.172Z,20.57
2017-11-10T00:36:22.629Z,20.6
2017-11-10T00:36:36.087Z,20.6
2017-11-10T00:36:49.581Z,20.63
2017-11-10T00:37:03.343Z,20.56
2017-11-10T00:37:16.836Z,20.53
2017-11-10T00:37:30.238Z,20.58
2017-11-10T00:37:43.634Z,20.58
2017-11-10T00:37:57.059Z,20.6
2017-11-10T00:38:10.525Z,20.56
2017-11-10T00:38:23.427Z,20.54
2017-11-10T00:38:36.417Z,20.6
2017-11-10T00:38:49.858Z,20.6
2017-11-10T00:39:04.687Z,20.57
2017-11-10T00:39:17.674Z,20.49
2017-11-10T00:39:31.173Z,20.68
2017-11-10T00:39:44.098Z,20.57
2017-11-10T00:39:57.600Z,20.76
2017-11-10T00:40:10.463Z,20.56
2017-11-10T00:40:23.890Z,20.61
2017-11-10T00:40:37.340Z,20.57
2017-11-10T00:41:02.419Z,20.66
2017-11-10T00:41:15.882Z,20.64
2017-11-10T00:41:29.305Z,20.6
2017-11-10T00:41:42.750Z,20.6
2017-11-10T00:41:57.036Z,20.64
2017-11-10T00:42:10.557Z,20.64
2017-11-10T00:42:24.071Z,20.6
2017-11-10T00:42:37.570Z,20.61
2017-11-10T00:42:50.544Z,20.6
2017-11-10T00:43:03.997Z,20.61
2017-11-10T00:43:16.942Z,20.61
2017-11-10T00:43:29.273Z,20.57
2017-11-10T00:43:42.757Z,20.61
2017-11-10T00:43:56.240Z,20.6
2017-11-10T00:44:09.700Z,20.57
2017-11-10T00:44:23.275Z,20.58
2017-11-10T00:44:36.169Z,20.57
2017-11-10T00:44:49.636Z,20.63
2017-11-10T00:45:02.566Z,20.61
2017-11-10T00:45:16.016Z,20.56
2017-11-10T00:45:29.473Z,20.58
2017-11-10T00:45:42.910Z,20.64
2017-11-10T00:45:55.339Z,20.64
2017-11-10T00:46:08.248Z,20.57
2017-11-10T00:46:21.754Z,20.57
2017-11-10T00:46:35.473Z,20.57
2017-11-10T00:46:48.393Z,20.63
2017-11-10T00:47:02.121Z,20.61
2017-11-10T00:47:15.565Z,20.63
2017-11-10T00:47:28.521Z,20.63
2017-11-10T00:47:42.062Z,20.61
2017-11-10T00:47:55.513Z,20.64
2017-11-10T00:48:08.492Z,20.53
2017-11-10T00:48:21.420Z,20.63
2017-11-10T00:48:34.341Z,20.57
2017-11-10T00:48:47.788Z,20.57
2017-11-10T00:49:01.256Z,20.61
2017-11-10T00:49:14.745Z,20.56
2017-11-10T00:49:28.138Z,20.58
2017-11-10T00:49:41.032Z,20.61
2017-11-10T00:49:54.474Z,20.6
2017-11-10T00:50:07.403Z,20.42
2017-11-10T00:50:20.918Z,20.53
2017-11-10T00:50:33.857Z,20.42
2017-11-10T00:50:47.274Z,20.57
2017-11-10T00:51:00.255Z,20.58
2017-11-10T00:51:13.719Z,20.56
2017-11-10T00:51:26.141Z,20.57
2017-11-10T00:51:39.030Z,20.57
2017-11-10T00:51:52.477Z,20.6
2017-11-10T00:52:05.986Z,20.64
2017-11-10T00:52:18.941Z,20.6
2017-11-10T00:52:31.803Z,20.61
2017-11-10T00:52:45.266Z,20.58
2017-11-10T00:52:58.757Z,20.64
2017-11-10T00:53:12.183Z,20.64
2017-11-10T00:53:25.114Z,20.61
2017-11-10T00:53:38.568Z,20.63
2017-11-10T00:53:52.038Z,20.61
2017-11-10T00:54:05.466Z,20.64
2017-11-10T00:54:18.929Z,20.57
2017-11-10T00:54:31.783Z,20.61
2017-11-10T00:54:45.260Z,20.56
2017-11-10T00:54:58.789Z,20.6
2017-11-10T00:55:12.280Z,20.57
2017-11-10T00:55:24.656Z,20.56
2017-11-10T00:55:38.088Z,20.56
2017-11-10T00:55:51.555Z,20.49
2017-11-10T00:56:05.045Z,20.57
2017-11-10T00:56:18.491Z,20.54
2017-11-10T00:56:31.390Z,20.6
2017-11-10T00:56:44.879Z,20.61
2017-11-10T00:56:57.849Z,20.48
2017-11-10T00:57:11.192Z,20.49
2017-11-10T00:57:24.685Z,20.48
2017-11-10T00:57:38.101Z,20.48
2017-11-10T00:57:51.540Z,20.48
2017-11-10T00:58:04.448Z,20.46
2017-11-10T00:58:17.931Z,20.56
2017-11-10T00:58:30.913Z,20.46
2017-11-10T00:58:44.414Z,20.49
2017-11-10T00:58:57.917Z,20.46
2017-11-10T00:59:11.382Z,20.46
2017-11-10T00:59:23.724Z,20.44
2017-11-10T00:59:37.160Z,20.44
2017-11-10T00:59:50.612Z,20.42
2017-11-10T01:00:04.120Z,20.42
2017-11-10T01:00:17.026Z,20.44
2017-11-10T01:00:30.500Z,20.48
2017-11-10T01:00:44.012Z,20.44
2017-11-10T01:00:57.481Z,20.42
2017-11-10T01:01:10.982Z,20.42
2017-11-10T01:01:24.426Z,20.42
2017-11-10T01:01:37.896Z,20.48
2017-11-10T01:01:51.383Z,20.4
2017-11-10T01:02:04.292Z,20.37
2017-11-10T01:02:16.666Z,20.4
2017-11-10T01:02:29.613Z,20.42
2017-11-10T01:02:43.101Z,20.37
2017-11-10T01:02:56.530Z,20.4
2017-11-10T01:03:09.445Z,20.38
2017-11-10T01:03:22.334Z,20.35
2017-11-10T01:03:34.717Z,20.41
2017-11-10T01:03:48.230Z,20.34
2017-11-10T01:04:01.716Z,20.41
2017-11-10T01:04:14.641Z,20.38
2017-11-10T01:04:28.197Z,20.35
2017-11-10T01:04:41.653Z,20.38
2017-11-10T01:04:55.203Z,20.38
2017-11-10T01:05:08.634Z,20.38
2017-11-10T01:05:21.527Z,20.32
2017-11-10T01:05:34.440Z,20.3
2017-11-10T01:05:47.860Z,20.29
2017-11-10T01:06:01.324Z,20.35
2017-11-10T01:06:13.732Z,20.34
2017-11-10T01:06:27.204Z,20.37
2017-11-10T01:06:40.673Z,20.37
2017-11-10T01:06:54.094Z,20.38
2017-11-10T01:07:07.612Z,20.37
2017-11-10T01:07:20.557Z,20.35
2017-11-10T01:07:34.070Z,20.34
2017-11-10T01:07:46.984Z,20.35
2017-11-10T01:08:00.438Z,20.34
2017-11-10T01:08:13.411Z,20.34
2017-11-10T01:08:26.351Z,20.34
2017-11-10T01:08:38.715Z,20.37
2017-11-10T01:08:51.592Z,20.35
2017-11-10T01:09:05.074Z,20.32
2017-11-10T01:09:18.022Z,20.34
2017-11-10T01:09:30.974Z,20.34
2017-11-10T01:09:43.951Z,20.44
2017-11-10T01:09:57.673Z,20.32
2017-11-10T01:10:10.579Z,20.38
2017-11-10T01:10:23.529Z,20.35
2017-11-10T01:10:36.962Z,20.44
2017-11-10T01:10:49.876Z,20.41
2017-11-10T01:11:03.324Z,20.48
2017-11-10T01:11:16.287Z,20.42
2017-11-10T01:11:29.248Z,20.42
2017-11-10T01:11:42.675Z,20.4
2017-11-10T01:11:56.154Z,20.41
2017-11-10T01:12:09.054Z,20.42
2017-11-10T01:12:23.482Z,20.44
2017-11-10T01:12:36.402Z,20.46
2017-11-10T01:12:49.836Z,20.51
2017-11-10T01:13:03.340Z,20.44
2017-11-10T01:13:16.790Z,20.42
2017-11-10T01:13:30.255Z,20.44
2017-11-10T01:13:43.711Z,20.42
2017-11-10T01:13:57.112Z,20.42
2017-11-10T01:14:09.969Z,20.46
2017-11-10T01:14:22.917Z,20.4
2017-11-10T01:14:36.373Z,20.44
2017-11-10T01:14:49.801Z,20.38
2017-11-10T01:15:02.684Z,20.4
2017-11-10T01:15:16.137Z,20.4
2017-11-10T01:15:29.042Z,20.38
2017-11-10T01:15:42.519Z,20.4
2017-11-10T01:15:56.030Z,20.42
2017-11-10T01:16:08.965Z,20.42
2017-11-10T01:16:22.389Z,20.42
2017-11-10T01:16:35.282Z,20.42
2017-11-10T01:16:48.781Z,20.41
2017-11-10T01:17:01.676Z,20.34
2017-11-10T01:17:14.697Z,20.37
2017-11-10T01:17:28.155Z,20.35
2017-11-10T01:17:41.643Z,20.34
2017-11-10T01:17:55.091Z,20.35
2017-11-10T01:18:08.007Z,20.37
2017-11-10T01:18:21.009Z,20.3
2017-11-10T01:18:34.451Z,20.32
2017-11-10T01:18:47.391Z,20.38
2017-11-10T01:19:00.347Z,20.38
2017-11-10T01:19:13.829Z,20.42
2017-11-10T01:19:27.290Z,20.34
2017-11-10T01:19:40.748Z,20.35
2017-11-10T01:19:53.686Z,20.35
2017-11-10T01:20:06.041Z,20.35
2017-11-10T01:20:19.528Z,20.35
2017-11-10T01:20:33.003Z,20.35
2017-11-10T01:20:46.477Z,20.35
2017-11-10T01:20:59.923Z,20.34
2017-11-10T01:21:13.423Z,20.35
2017-11-10T01:21:26.854Z,20.41
2017-11-10T01:21:39.845Z,20.37
2017-11-10T01:21:53.340Z,20.35
2017-11-10T01:22:06.825Z,20.34
2017-11-10T01:22:20.337Z,20.41
2017-11-10T01:22:33.774Z,20.34
2017-11-10T01:22:47.189Z,20.4
2017-11-10T01:23:00.644Z,20.38
2017-11-10T01:23:14.110Z,20.35
2017-11-10T01:23:27.509Z,20.44
2017-11-10T01:23:40.416Z,20.38
2017-11-10T01:23:53.367Z,20.38
2017-11-10T01:24:06.796Z,20.34
2017-11-10T01:24:20.365Z,20.35
2017-11-10T01:24:33.787Z,20.37
2017-11-10T01:24:46.669Z,20.4
2017-11-10T01:25:00.149Z,20.49
2017-11-10T01:25:13.116Z,20.46
2017-11-10T01:25:26.607Z,20.37
2017-11-10T01:25:39.519Z,20.44
2017-11-10T01:25:52.975Z,20.41
2017-11-10T01:26:06.430Z,20.42
2017-11-10T01:26:19.849Z,20.44
2017-11-10T01:26:33.334Z,20.4
2017-11-10T01:26:46.271Z,20.35
2017-11-10T01:26:59.231Z,20.42
2017-11-10T01:27:12.700Z,20.37
2017-11-10T01:27:26.874Z,20.34
2017-11-10T01:27:40.378Z,20.4
2017-11-10T01:27:53.859Z,20.35
2017-11-10T01:28:07.367Z,20.32
2017-11-10T01:28:20.823Z,20.32
2017-11-10T01:28:34.323Z,20.34
2017-11-10T01:28:47.859Z,20.4
2017-11-10T01:29:01.366Z,20.34
2017-11-10T01:29:14.822Z,20.34
2017-11-10T01:29:28.214Z,20.32
2017-11-10T01:29:41.699Z,20.34
2017-11-10T01:29:55.164Z,20.35
2017-11-10T01:30:08.058Z,20.37
2017-11-10T01:30:20.977Z,20.38
2017-11-10T01:30:34.444Z,20.32
2017-11-10T01:30:47.882Z,20.32
2017-11-10T01:31:01.366Z,20.37
2017-11-10T01:31:14.208Z,20.34
2017-11-10T01:31:27.733Z,20.4
2017-11-10T01:31:40.638Z,20.38
2017-11-10T01:31:54.087Z,20.4
2017-11-10T01:32:07.532Z,20.42
2017-11-10T01:32:20.995Z,20.38
2017-11-10T01:32:34.461Z,20.38
2017-11-10T01:32:47.402Z,20.35
2017-11-10T01:33:00.329Z,20.38
2017-11-10T01:33:13.283Z,20.34
2017-11-10T01:33:25.613Z,20.48
2017-11-10T01:33:39.064Z,20.37
2017-11-10T01:33:52.028Z,20.35
2017-11-10T01:34:05.003Z,20.34
2017-11-10T01:34:18.501Z,20.38
2017-11-10T01:34:31.956Z,20.4
2017-11-10T01:34:45.406Z,20.34
2017-11-10T01:34:58.869Z,20.4
2017-11-10T01:35:12.310Z,20.42
2017-11-10T01:35:25.263Z,20.42
2017-11-10T01:35:38.722Z,20.41
2017-11-10T01:35:52.222Z,20.44
2017-11-10T01:36:05.171Z,20.44
2017-11-10T01:36:18.164Z,20.35
2017-11-10T01:36:31.199Z,20.41
2017-11-10T01:36:44.649Z,20.4
2017-11-10T01:36:58.128Z,20.46
2017-11-10T01:37:11.611Z,20.4
2017-11-10T01:37:25.102Z,20.4
2017-11-10T01:37:38.569Z,20.38
2017-11-10T01:37:52.030Z,20.42
2017-11-10T01:38:04.978Z,20.48
2017-11-10T01:38:18.445Z,20.44
2017-11-10T01:38:31.371Z,20.44
2017-11-10T01:38:44.848Z,20.42
2017-11-10T01:38:58.421Z,20.48
2017-11-10T01:39:11.342Z,20.44
2017-11-10T01:39:23.730Z,20.4
2017-11-10T01:39:37.202Z,20.48
2017-11-10T01:39:50.642Z,20.46
2017-11-10T01:40:04.082Z,20.46
2017-11-10T01:40:17.525Z,20.44
2017-11-10T01:40:30.929Z,20.48
2017-11-10T01:40:43.880Z,20.42
2017-11-10T01:40:57.321Z,20.42
2017-11-10T01:41:10.258Z,20.42
2017-11-10T01:41:23.692Z,20.44
2017-11-10T01:41:37.157Z,20.44
2017-11-10T01:41:50.606Z,20.48
2017-11-10T01:42:03.545Z,20.48
2017-11-10T01:42:16.462Z,20.42
2017-11-10T01:42:30.105Z,20.44
2017-11-10T01:42:43.574Z,20.41
2017-11-10T01:42:56.486Z,20.46
2017-11-10T01:43:09.973Z,20.46
2017-11-10T01:43:23.413Z,20.48
2017-11-10T01:43:36.859Z,20.48
2017-11-10T01:43:50.289Z,20.48
2017-11-10T01:44:03.799Z,20.48
2017-11-10T01:44:16.199Z,20.44
2017-11-10T01:44:29.683Z,20.41
2017-11-10T01:44:43.194Z,20.46
2017-11-10T01:44:56.138Z,20.46
2017-11-10T01:45:09.067Z,20.4
2017-11-10T01:45:21.470Z,20.46
2017-11-10T01:45:34.944Z,20.48
2017-11-10T01:45:47.898Z,20.44
2017-11-10T01:46:01.393Z,20.42
2017-11-10T01:46:14.883Z,20.42
2017-11-10T01:46:27.830Z,20.46
2017-11-10T01:46:40.749Z,20.44
2017-11-10T01:46:54.175Z,20.46
2017-11-10T01:47:07.678Z,20.41
2017-11-10T01:47:20.611Z,20.41
2017-11-10T01:47:33.723Z,20.42
2017-11-10T01:47:47.122Z,20.44
2017-11-10T01:48:00.596Z,20.46
2017-11-10T01:48:14.092Z,20.49
2017-11-10T01:48:27.034Z,20.48
2017-11-10T01:48:40.459Z,20.44
2017-11-10T01:48:53.937Z,20.42
2017-11-10T01:49:07.438Z,20.38
2017-11-10T01:49:20.891Z,20.37
2017-11-10T01:49:33.292Z,20.32
2017-11-10T01:49:46.189Z,20.37
2017-11-10T01:49:59.115Z,20.35
2017-11-10T01:50:12.601Z,20.35
2017-11-10T01:50:25.559Z,20.23
2017-11-10T01:50:39.043Z,20.25
2017-11-10T01:50:52.500Z,20.27
2017-11-10T01:51:06.048Z,20.3
2017-11-10T01:51:19.531Z,20.25
2017-11-10T01:51:32.989Z,20.3
2017-11-10T01:51:46.452Z,20.18
2017-11-10T01:51:59.332Z,20.23
2017-11-10T01:52:12.278Z,20.2
2017-11-10T01:52:25.221Z,20.22
2017-11-10T01:52:38.964Z,20.12
2017-11-10T01:52:52.422Z,20.16
2017-11-10T01:53:05.878Z,20.11
2017-11-10T01:53:18.990Z,20.15
2017-11-10T01:53:31.901Z,20.2
2017-11-10T01:53:45.364Z,20.22
2017-11-10T01:53:58.814Z,20.22
2017-11-10T01:54:12.317Z,20.2
2017-11-10T01:54:25.208Z,20.12
2017-11-10T01:54:38.710Z,20.08
2017-11-10T01:54:52.178Z,20.11
2017-11-10T01:55:05.081Z,20.04
2017-11-10T01:55:18.580Z,20.12
2017-11-10T01:55:31.474Z,20.08
2017-11-10T01:55:44.897Z,20.04
2017-11-10T01:55:58.309Z,20.12
2017-11-10T01:56:11.213Z,20.1
2017-11-10T01:56:24.675Z,20.04
2017-11-10T01:56:38.116Z,20.1
2017-11-10T01:56:51.057Z,20.04
2017-11-10T01:57:04.520Z,20
2017-11-10T01:57:17.497Z,19.92
2017-11-10T01:57:31.112Z,19.92
2017-11-10T01:57:44.274Z,19.98
2017-11-10T01:57:57.794Z,19.95
2017-11-10T01:58:10.695Z,19.93
2017-11-10T01:58:24.089Z,19.93
2017-11-10T01:58:36.995Z,19.97
2017-11-10T01:58:50.497Z,19.97
2017-11-10T01:59:03.372Z,19.93
2017-11-10T01:59:16.866Z,19.93
2017-11-10T01:59:29.733Z,19.93
2017-11-10T01:59:42.664Z,19.93
2017-11-10T01:59:56.838Z,19.89
2017-11-10T02:00:10.282Z,19.93
2017-11-10T02:00:23.767Z,19.87
2017-11-10T02:00:37.290Z,19.86
2017-11-10T02:00:50.747Z,19.83
2017-11-10T02:01:04.205Z,19.87
2017-11-10T02:01:17.665Z,19.83
2017-11-10T02:01:31.133Z,19.83
2017-11-10T02:01:44.634Z,19.9
2017-11-10T02:01:58.143Z,19.86
2017-11-10T02:02:11.055Z,19.86
2017-11-10T02:02:24.499Z,19.86
2017-11-10T02:02:37.424Z,19.93
2017-11-10T02:02:50.893Z,19.8
2017-11-10T02:03:04.332Z,19.86
2017-11-10T02:03:16.749Z,19.86
2017-11-10T02:03:29.606Z,19.89
2017-11-10T02:03:43.087Z,19.87
2017-11-10T02:03:56.549Z,19.86
2017-11-10T02:04:09.961Z,19.83
2017-11-10T02:04:23.435Z,19.89
2017-11-10T02:04:36.875Z,19.86
2017-11-10T02:04:50.378Z,19.98
2017-11-10T02:05:03.888Z,19.97
2017-11-10T02:05:17.363Z,19.93
2017-11-10T02:05:30.776Z,19.97
2017-11-10T02:05:43.198Z,19.95
2017-11-10T02:05:56.678Z,19.93
2017-11-10T02:06:10.139Z,19.92
2017-11-10T02:06:23.609Z,19.9
2017-11-10T02:06:36.526Z,19.98
2017-11-10T02:06:49.975Z,19.98
2017-11-10T02:07:03.409Z,19.95
2017-11-10T02:07:16.908Z,19.93
2017-11-10T02:07:30.397Z,19.93
2017-11-10T02:07:42.776Z,19.98
2017-11-10T02:07:55.701Z,19.97
2017-11-10T02:08:09.228Z,19.97
2017-11-10T02:08:22.705Z,19.93
2017-11-10T02:08:35.578Z,19.95
2017-11-10T02:08:49.105Z,19.98
2017-11-10T02:09:02.580Z,20.02
2017-11-10T02:09:14.987Z,19.95
2017-11-10T02:09:28.446Z,19.97
2017-11-10T02:09:41.383Z,20
2017-11-10T02:09:54.281Z,20.02
2017-11-10T02:10:07.163Z,20.01
2017-11-10T02:10:20.608Z,19.97
2017-11-10T02:10:34.070Z,19.98
2017-11-10T02:10:47.521Z,19.95
2017-11-10T02:11:01.033Z,19.93
2017-11-10T02:11:14.451Z,19.93
2017-11-10T02:11:27.954Z,19.9
2017-11-10T02:11:39.754Z,19.97
2017-11-10T02:11:53.255Z,19.98
2017-11-10T02:12:06.756Z,19.98
2017-11-10T02:12:19.624Z,19.95
2017-11-10T02:12:33.092Z,19.98
2017-11-10T02:12:46.410Z,20
2017-11-10T02:12:59.910Z,19.95
2017-11-10T02:13:13.368Z,20
2017-11-10T02:13:26.846Z,20.04
2017-11-10T02:13:39.798Z,20
2017-11-10T02:13:53.316Z,20.02
2017-11-10T02:14:06.201Z,19.93
2017-11-10T02:14:18.632Z,20.02
2017-11-10T02:14:32.123Z,19.9
2017-11-10T02:14:45.571Z,19.97
2017-11-10T02:14:59.021Z,19.95
2017-11-10T02:15:11.429Z,19.95
2017-11-10T02:15:24.301Z,19.98
2017-11-10T02:15:37.751Z,19.93
2017-11-10T02:15:51.207Z,19.95
2017-11-10T02:16:04.157Z,19.95
2017-11-10T02:16:17.057Z,19.95
2017-11-10T02:16:30.548Z,19.93
2017-11-10T02:16:43.988Z,19.85
2017-11-10T02:16:56.890Z,19.87
2017-11-10T02:17:09.840Z,19.86
2017-11-10T02:17:23.270Z,19.9
2017-11-10T02:17:36.741Z,19.83
2017-11-10T02:17:50.193Z,19.87
2017-11-10T02:18:03.695Z,19.8
2017-11-10T02:18:16.034Z,19.79
2017-11-10T02:18:29.527Z,19.78
2017-11-10T02:18:42.996Z,19.8
2017-11-10T02:18:56.455Z,19.72
2017-11-10T02:19:09.978Z,19.71
2017-11-10T02:19:23.457Z,19.71
2017-11-10T02:19:36.403Z,19.75
2017-11-10T02:19:49.896Z,19.67
2017-11-10T02:20:03.337Z,19.7
2017-11-10T02:20:16.311Z,19.65
2017-11-10T02:20:29.219Z,19.7
2017-11-10T02:20:42.709Z,19.67
2017-11-10T02:20:56.198Z,19.68
2017-11-10T02:21:09.688Z,19.67
2017-11-10T02:21:21.534Z,19.7
2017-11-10T02:21:34.982Z,19.61
2017-11-10T02:21:48.497Z,19.67
2017-11-10T02:22:01.446Z,19.65
2017-11-10T02:22:14.966Z,19.57
2017-11-10T02:22:28.454Z,19.65
2017-11-10T02:22:42.005Z,19.53
2017-11-10T02:22:55.448Z,19.53
2017-11-10T02:23:08.946Z,19.63
2017-11-10T02:23:22.405Z,19.57
2017-11-10T02:23:35.944Z,19.57
2017-11-10T02:23:48.885Z,19.55
2017-11-10T02:24:02.572Z,19.52
2017-11-10T02:24:16.091Z,19.55
2017-11-10T02:24:29.534Z,19.63
2017-11-10T02:24:42.979Z,19.57
2017-11-10T02:24:56.475Z,19.55
2017-11-10T02:25:09.903Z,19.5
2017-11-10T02:25:23.369Z,19.46
2017-11-10T02:25:36.288Z,19.5
2017-11-10T02:25:49.758Z,19.63
2017-11-10T02:26:03.210Z,19.45
2017-11-10T02:26:16.687Z,19.55
2017-11-10T02:26:30.170Z,19.53
2017-11-10T02:26:43.687Z,19.56
2017-11-10T02:26:57.161Z,19.6
2017-11-10T02:27:09.533Z,19.46
2017-11-10T02:27:22.526Z,19.49
2017-11-10T02:27:35.986Z,19.47
2017-11-10T02:27:49.624Z,19.47
2017-11-10T02:28:03.093Z,19.4
2017-11-10T02:28:16.620Z,19.52
2017-11-10T02:28:30.117Z,19.47
2017-11-10T02:28:42.985Z,19.46
2017-11-10T02:28:55.928Z,19.34
2017-11-10T02:29:09.399Z,19.45
2017-11-10T02:29:22.326Z,19.45
2017-11-10T02:29:35.758Z,19.46
2017-11-10T02:29:48.649Z,19.47
2017-11-10T02:30:01.056Z,19.38
2017-11-10T02:30:14.605Z,19.4
2017-11-10T02:30:28.117Z,19.46
2017-11-10T02:30:41.585Z,19.45
2017-11-10T02:30:55.132Z,19.5
2017-11-10T02:31:08.101Z,19.47
2017-11-10T02:31:21.625Z,19.42
2017-11-10T02:31:33.969Z,19.47
2017-11-10T02:31:47.449Z,19.49
2017-11-10T02:32:00.933Z,19.5
2017-11-10T02:32:14.427Z,19.37
2017-11-10T02:32:27.984Z,19.49
2017-11-10T02:32:40.406Z,19.4
2017-11-10T02:32:52.772Z,19.37
2017-11-10T02:33:06.193Z,19.43
2017-11-10T02:33:19.664Z,19.46
2017-11-10T02:33:33.191Z,19.45
2017-11-10T02:33:46.667Z,19.4
2017-11-10T02:33:59.601Z,19.37
2017-11-10T02:34:13.043Z,19.38
2017-11-10T02:34:26.547Z,19.45
2017-11-10T02:34:39.982Z,19.42
2017-11-10T02:34:53.439Z,19.43
2017-11-10T02:35:06.351Z,19.43
2017-11-10T02:35:19.832Z,19.37
2017-11-10T02:35:33.361Z,19.43
2017-11-10T02:35:46.792Z,19.37
2017-11-10T02:35:58.690Z,19.47
2017-11-10T02:36:11.069Z,19.5
2017-11-10T02:36:24.508Z,19.4
2017-11-10T02:36:38.018Z,19.4
2017-11-10T02:36:51.517Z,19.43
2017-11-10T02:37:04.988Z,19.42
2017-11-10T02:37:18.425Z,19.43
2017-11-10T02:37:31.941Z,19.46
2017-11-10T02:37:45.373Z,19.45
2017-11-10T02:37:58.336Z,19.46
2017-11-10T02:38:11.844Z,19.47
2017-11-10T02:38:24.789Z,19.27
2017-11-10T02:38:37.741Z,19.45
2017-11-10T02:38:51.202Z,19.47
2017-11-10T02:39:04.652Z,19.37
2017-11-10T02:39:17.583Z,19.42
2017-11-10T02:39:30.604Z,19.46
2017-11-10T02:39:44.090Z,19.4
2017-11-10T02:39:57.068Z,19.42
2017-11-10T02:40:09.446Z,19.47
2017-11-10T02:40:22.402Z,19.43
2017-11-10T02:40:35.905Z,19.43
2017-11-10T02:40:48.792Z,19.4
2017-11-10T02:41:02.242Z,19.45
2017-11-10T02:41:15.268Z,19.38
2017-11-10T02:41:28.773Z,19.42
2017-11-10T02:41:41.696Z,19.42
2017-11-10T02:41:54.653Z,19.42
2017-11-10T02:42:07.589Z,19.5
2017-11-10T02:42:20.502Z,19.5
2017-11-10T02:42:33.445Z,19.49
2017-11-10T02:42:46.920Z,19.49
2017-11-10T02:43:01.254Z,19.5
2017-11-10T02:43:14.195Z,19.6
2017-11-10T02:43:27.681Z,19.6
2017-11-10T02:43:40.635Z,19.53
2017-11-10T02:43:54.149Z,19.43
2017-11-10T02:44:07.659Z,19.49
2017-11-10T02:44:20.587Z,19.52
2017-11-10T02:44:33.527Z,19.49
2017-11-10T02:44:45.905Z,19.47
2017-11-10T02:44:59.409Z,19.46
2017-11-10T02:45:12.883Z,19.55
2017-11-10T02:45:26.327Z,19.45
2017-11-10T02:45:39.848Z,19.5
2017-11-10T02:45:53.347Z,19.46
2017-11-10T02:46:05.789Z,19.53
2017-11-10T02:46:19.298Z,19.46
2017-11-10T02:46:32.182Z,19.55
2017-11-10T02:46:45.108Z,19.6
2017-11-10T02:46:58.553Z,19.53
2017-11-10T02:47:12.035Z,19.47
2017-11-10T02:47:25.517Z,19.49
2017-11-10T02:47:39.021Z,19.5
2017-11-10T02:47:52.555Z,19.53
2017-11-10T02:48:05.482Z,19.46
2017-11-10T02:48:18.953Z,19.53
2017-11-10T02:48:31.319Z,19.5
2017-11-10T02:48:44.905Z,19.45
2017-11-10T02:48:58.334Z,19.46
2017-11-10T02:49:11.818Z,19.47
2017-11-10T02:49:24.201Z,19.47
2017-11-10T02:49:37.648Z,19.47
2017-11-10T02:49:51.121Z,19.46
2017-11-10T02:50:04.062Z,19.5
2017-11-10T02:50:17.585Z,19.4
2017-11-10T02:50:31.026Z,19.47
2017-11-10T02:50:44.440Z,19.46
2017-11-10T02:50:57.861Z,19.49
2017-11-10T02:51:10.827Z,19.45
2017-11-10T02:51:24.309Z,19.55
2017-11-10T02:51:37.772Z,19.55